Messwerte Nawabshah

Temperatur

Temperatur
°C
1576252800 21.00 21.00 16
1576256400 22.00 22.00 15
1576260000 23.00 23.00 14
1576263600 0.00 0.00 13
1576267200 1.00 1.00
1576270800 2.00 2.00 13
1576274400 3.00 3.00
1576278000 4.00 4.00 12
1576281600 5.00 5.00 12
1576285200 6.00 6.00 12
1576288800 7.00 7.00 11
1576292400 8.00 8.00 12
1576296000 9.00 9.00 14
1576299600 10.00 10.00 17
1576303200 11.00 11.00 19
1576306800 12.00 12.00
1576310400 13.00 13.00
1576314000 14.00 14.00 23
1576317600 15.00 15.00 24
1576321200 16.00 16.00 24
1576324800 17.00 17.00 23
1576328400 18.00 18.00 22
1576332000 19.00 19.00 20
1576335600 20.00 20.00 19

Aktuellste Messwerte

Wettercharakter
Wetter: meist klar
Temperatur
19 °C
Feuchtigkeit
70 %
Wind
0 km/h, -
Luftdruck
1017 hPa
Messzeit: 14. Dezember 2019, 20.00Datenquelle: METAR

Weitere Messstationen in der Nähe

Messstation Temperatur Entfernung
Karatschi 20 °C 195 km
Jamnagar 20 °C 456 km

Wind

Windrichtung Böen Mittelwind
° km/h km/h
1576252800 21.00 20.00 - 21.00 140° 15
1576256400 22.00 21.00 - 22.00 140° 10
1576260000 23.00 22.00 - 23.00 90° 10
1576263600 0.00 23.00 - 0.00 140° 10
1576267200 1.00 0.00 - 1.00
1576270800 2.00 1.00 - 2.00 90° 5
1576274400 3.00 2.00 - 3.00
1576278000 4.00 3.00 - 4.00 0
1576281600 5.00 4.00 - 5.00 0
1576285200 6.00 5.00 - 6.00 140° 10
1576288800 7.00 6.00 - 7.00 140° 5
1576292400 8.00 7.00 - 8.00 140° 10
1576296000 9.00 8.00 - 9.00 140° 10
1576299600 10.00 9.00 - 10.00 140° 5
1576303200 11.00 10.00 - 11.00 140° 5
1576306800 12.00 11.00 - 12.00
1576310400 13.00 12.00 - 13.00
1576314000 14.00 13.00 - 14.00 230° 15
1576317600 15.00 14.00 - 15.00 180° 10
1576321200 16.00 15.00 - 16.00 230° 15
1576324800 17.00 16.00 - 17.00 140° 10
1576328400 18.00 17.00 - 18.00 320° 5
1576332000 19.00 18.00 - 19.00 320° 5
1576335600 20.00 19.00 - 20.00 0

Ihre Wetterstation

Fehlt Ihre Wetterstation auf unserem Portal?

Schreiben Sie an network@meteonews.ch

Klima

Wann ist es am wärmsten? Wann regnet es am wenigsten? Unsere Klimadaten geben Auskunft.